Terminal Aerodrome Forecast
Issued by NWS

Home | Current Version | Previous Version | Text Only | Print | Product List | Glossary On
Versions: 1 2 3 4 5 6 7 8 9 10 11 12 13 14 15
000
FTUS46 KSEW 041128
TAFOLM
TAF
KOLM 041128Z 0412/0512 00000KT 5SM BR SCT001
      TEMPO 0412/0415 1SM BR BKN001
     FM041500 36003KT P6SM SCT012 BKN060
      TEMPO 0415/0418 2SM BR BKN012
     FM042000 36005KT P6SM SCT030 BKN100
     FM050300 00000KT P6SM FEW050 SCT150=

USA.gov is the U.S. government's official web portal to all federal, state and local government web resources and services.